sensor_id;sensor_type;location;lat;lon;timestamp;temperature;humidity
8231;DHT22;4156;50.908;6.974;2023-04-24T00:00:13;14.80;99.90
8231;DHT22;4156;50.908;6.974;2023-04-24T00:02:40;14.80;99.90
8231;DHT22;4156;50.908;6.974;2023-04-24T00:05:07;14.80;99.90
8231;DHT22;4156;50.908;6.974;2023-04-24T00:07:33;14.70;99.90
8231;DHT22;4156;50.908;6.974;2023-04-24T00:09:59;14.70;99.90
8231;DHT22;4156;50.908;6.974;2023-04-24T00:12:25;14.70;99.90
8231;DHT22;4156;50.908;6.974;2023-04-24T00:14:52;14.70;99.90
8231;DHT22;4156;50.908;6.974;2023-04-24T00:17:17;14.70;99.90
8231;DHT22;4156;50.908;6.974;2023-04-24T00:19:46;14.70;99.90
8231;DHT22;4156;50.908;6.974;2023-04-24T00:22:12;14.70;99.90
8231;DHT22;4156;50.908;6.974;2023-04-24T00:24:39;14.70;99.90
8231;DHT22;4156;50.908;6.974;2023-04-24T00:27:04;14.70;99.90
8231;DHT22;4156;50.908;6.974;2023-04-24T00:29:30;14.60;99.90
8231;DHT22;4156;50.908;6.974;2023-04-24T00:31:55;14.60;99.90
8231;DHT22;4156;50.908;6.974;2023-04-24T00:34:21;14.60;99.90
8231;DHT22;4156;50.908;6.974;2023-04-24T00:36:47;14.60;99.90
8231;DHT22;4156;50.908;6.974;2023-04-24T00:39:14;14.60;99.90
8231;DHT22;4156;50.908;6.974;2023-04-24T00:41:39;14.60;99.90
8231;DHT22;4156;50.908;6.974;2023-04-24T00:44:05;14.60;99.90
8231;DHT22;4156;50.908;6.974;2023-04-24T00:46:31;14.60;99.90
8231;DHT22;4156;50.908;6.974;2023-04-24T00:48:59;14.60;99.90
8231;DHT22;4156;50.908;6.974;2023-04-24T00:51:24;14.50;99.90
8231;DHT22;4156;50.908;6.974;2023-04-24T00:53:50;14.60;99.90
8231;DHT22;4156;50.908;6.974;2023-04-24T00:56:17;14.60;99.90
8231;DHT22;4156;50.908;6.974;2023-04-24T00:58:44;14.50;99.90
8231;DHT22;4156;50.908;6.974;2023-04-24T01:01:10;14.50;99.90
8231;DHT22;4156;50.908;6.974;2023-04-24T01:03:36;14.50;99.90
8231;DHT22;4156;50.908;6.974;2023-04-24T01:06:03;14.50;99.90
8231;DHT22;4156;50.908;6.974;2023-04-24T01:08:29;14.50;99.90
8231;DHT22;4156;50.908;6.974;2023-04-24T01:10:55;14.50;99.90
8231;DHT22;4156;50.908;6.974;2023-04-24T01:13:22;14.50;99.90
8231;DHT22;4156;50.908;6.974;2023-04-24T01:15:48;14.50;99.90
8231;DHT22;4156;50.908;6.974;2023-04-24T01:18:14;14.60;99.90
8231;DHT22;4156;50.908;6.974;2023-04-24T01:20:40;14.50;99.90
8231;DHT22;4156;50.908;6.974;2023-04-24T01:23:08;14.50;99.90
8231;DHT22;4156;50.908;6.974;2023-04-24T01:25:34;14.50;99.90
8231;DHT22;4156;50.908;6.974;2023-04-24T01:28:00;14.50;99.90
8231;DHT22;4156;50.908;6.974;2023-04-24T01:30:26;14.50;99.90
8231;DHT22;4156;50.908;6.974;2023-04-24T01:32:53;14.50;99.90
8231;DHT22;4156;50.908;6.974;2023-04-24T01:35:19;14.40;99.90
8231;DHT22;4156;50.908;6.974;2023-04-24T01:37:45;14.50;99.90
8231;DHT22;4156;50.908;6.974;2023-04-24T01:40:11;14.50;99.90
8231;DHT22;4156;50.908;6.974;2023-04-24T01:42:36;14.50;99.90
8231;DHT22;4156;50.908;6.974;2023-04-24T01:45:03;14.50;99.90
8231;DHT22;4156;50.908;6.974;2023-04-24T01:47:31;14.40;99.90
8231;DHT22;4156;50.908;6.974;2023-04-24T01:49:57;14.40;99.90
8231;DHT22;4156;50.908;6.974;2023-04-24T01:52:23;14.40;99.90
8231;DHT22;4156;50.908;6.974;2023-04-24T01:54:48;14.40;99.90
8231;DHT22;4156;50.908;6.974;2023-04-24T01:57:14;14.40;99.90
8231;DHT22;4156;50.908;6.974;2023-04-24T01:59:41;14.40;99.90
8231;DHT22;4156;50.908;6.974;2023-04-24T02:02:06;14.30;99.90
8231;DHT22;4156;50.908;6.974;2023-04-24T02:04:33;14.30;99.90
8231;DHT22;4156;50.908;6.974;2023-04-24T02:06:58;14.30;99.90
8231;DHT22;4156;50.908;6.974;2023-04-24T02:09:24;14.20;99.90
8231;DHT22;4156;50.908;6.974;2023-04-24T02:11:50;14.20;99.90
8231;DHT22;4156;50.908;6.974;2023-04-24T02:14:16;14.20;99.90
8231;DHT22;4156;50.908;6.974;2023-04-24T02:16:41;14.20;99.90
8231;DHT22;4156;50.908;6.974;2023-04-24T02:19:07;14.10;99.90
8231;DHT22;4156;50.908;6.974;2023-04-24T02:21:33;14.10;99.90
8231;DHT22;4156;50.908;6.974;2023-04-24T02:23:58;14.00;99.90
8231;DHT22;4156;50.908;6.974;2023-04-24T02:26:24;14.00;99.90
8231;DHT22;4156;50.908;6.974;2023-04-24T02:28:50;13.90;99.90
8231;DHT22;4156;50.908;6.974;2023-04-24T02:31:15;13.90;99.90
8231;DHT22;4156;50.908;6.974;2023-04-24T02:33:41;13.90;99.90
8231;DHT22;4156;50.908;6.974;2023-04-24T02:36:06;13.90;99.90
8231;DHT22;4156;50.908;6.974;2023-04-24T02:38:33;13.80;99.90
8231;DHT22;4156;50.908;6.974;2023-04-24T02:40:58;13.80;99.90
8231;DHT22;4156;50.908;6.974;2023-04-24T02:43:24;13.70;99.90
8231;DHT22;4156;50.908;6.974;2023-04-24T02:45:49;13.70;99.90
8231;DHT22;4156;50.908;6.974;2023-04-24T02:48:15;13.70;99.90
8231;DHT22;4156;50.908;6.974;2023-04-24T02:50:42;13.70;99.90
8231;DHT22;4156;50.908;6.974;2023-04-24T02:53:07;13.70;99.90
8231;DHT22;4156;50.908;6.974;2023-04-24T02:55:33;13.60;99.90
8231;DHT22;4156;50.908;6.974;2023-04-24T02:57:58;13.60;99.90
8231;DHT22;4156;50.908;6.974;2023-04-24T03:00:24;13.60;99.90
8231;DHT22;4156;50.908;6.974;2023-04-24T03:02:49;13.60;99.90
8231;DHT22;4156;50.908;6.974;2023-04-24T03:05:15;13.60;99.90
8231;DHT22;4156;50.908;6.974;2023-04-24T03:07:41;13.50;99.90
8231;DHT22;4156;50.908;6.974;2023-04-24T03:10:07;13.60;99.90
8231;DHT22;4156;50.908;6.974;2023-04-24T03:12:33;13.50;99.90
8231;DHT22;4156;50.908;6.974;2023-04-24T03:14:58;13.50;99.90
8231;DHT22;4156;50.908;6.974;2023-04-24T03:17:24;13.50;99.90
8231;DHT22;4156;50.908;6.974;2023-04-24T03:19:50;13.40;99.90
8231;DHT22;4156;50.908;6.974;2023-04-24T03:22:15;13.40;99.90
8231;DHT22;4156;50.908;6.974;2023-04-24T03:24:41;13.40;99.90
8231;DHT22;4156;50.908;6.974;2023-04-24T03:27:06;13.40;99.90
8231;DHT22;4156;50.908;6.974;2023-04-24T03:29:32;13.30;99.90
8231;DHT22;4156;50.908;6.974;2023-04-24T03:31:57;13.40;99.90
8231;DHT22;4156;50.908;6.974;2023-04-24T03:34:23;13.30;99.90
8231;DHT22;4156;50.908;6.974;2023-04-24T03:36:48;13.30;99.90
8231;DHT22;4156;50.908;6.974;2023-04-24T03:39:14;13.30;99.90
8231;DHT22;4156;50.908;6.974;2023-04-24T03:41:40;13.30;99.90
8231;DHT22;4156;50.908;6.974;2023-04-24T03:44:05;13.20;99.90
8231;DHT22;4156;50.908;6.974;2023-04-24T03:46:31;13.20;99.90
8231;DHT22;4156;50.908;6.974;2023-04-24T03:48:56;13.20;99.90
8231;DHT22;4156;50.908;6.974;2023-04-24T03:51:22;13.10;99.90
8231;DHT22;4156;50.908;6.974;2023-04-24T03:53:49;13.10;99.90
8231;DHT22;4156;50.908;6.974;2023-04-24T03:56:14;13.00;99.90
8231;DHT22;4156;50.908;6.974;2023-04-24T03:58:40;13.00;99.90
8231;DHT22;4156;50.908;6.974;2023-04-24T04:01:06;13.00;99.90
8231;DHT22;4156;50.908;6.974;2023-04-24T04:03:31;13.00;99.90
8231;DHT22;4156;50.908;6.974;2023-04-24T04:05:57;13.00;99.90
8231;DHT22;4156;50.908;6.974;2023-04-24T04:08:22;13.00;99.90
8231;DHT22;4156;50.908;6.974;2023-04-24T04:10:48;12.90;99.90
8231;DHT22;4156;50.908;6.974;2023-04-24T04:13:13;12.90;99.90
8231;DHT22;4156;50.908;6.974;2023-04-24T04:15:39;12.90;99.90
8231;DHT22;4156;50.908;6.974;2023-04-24T04:18:04;12.90;99.90
8231;DHT22;4156;50.908;6.974;2023-04-24T04:20:30;12.80;99.90
8231;DHT22;4156;50.908;6.974;2023-04-24T04:22:56;12.80;99.90
8231;DHT22;4156;50.908;6.974;2023-04-24T04:25:21;12.80;99.90
8231;DHT22;4156;50.908;6.974;2023-04-24T04:27:48;12.80;99.90
8231;DHT22;4156;50.908;6.974;2023-04-24T04:30:14;12.80;99.90
8231;DHT22;4156;50.908;6.974;2023-04-24T04:32:40;12.80;99.90
8231;DHT22;4156;50.908;6.974;2023-04-24T04:35:06;12.80;99.90
8231;DHT22;4156;50.908;6.974;2023-04-24T04:37:32;12.80;99.90
8231;DHT22;4156;50.908;6.974;2023-04-24T04:40:02;12.70;99.90
8231;DHT22;4156;50.908;6.974;2023-04-24T04:42:32;12.70;99.90
8231;DHT22;4156;50.908;6.974;2023-04-24T04:44:59;12.70;99.90
8231;DHT22;4156;50.908;6.974;2023-04-24T04:47:25;12.70;99.90
8231;DHT22;4156;50.908;6.974;2023-04-24T04:49:51;12.70;99.90
8231;DHT22;4156;50.908;6.974;2023-04-24T04:52:18;12.70;99.90
8231;DHT22;4156;50.908;6.974;2023-04-24T04:54:44;12.70;99.90
8231;DHT22;4156;50.908;6.974;2023-04-24T04:57:10;12.70;99.90
8231;DHT22;4156;50.908;6.974;2023-04-24T04:59:35;12.70;99.90
8231;DHT22;4156;50.908;6.974;2023-04-24T05:02:02;12.70;99.90
8231;DHT22;4156;50.908;6.974;2023-04-24T05:04:27;12.70;99.90
8231;DHT22;4156;50.908;6.974;2023-04-24T05:06:53;12.60;99.90
8231;DHT22;4156;50.908;6.974;2023-04-24T05:09:19;12.70;99.90
8231;DHT22;4156;50.908;6.974;2023-04-24T05:11:44;12.70;99.90
8231;DHT22;4156;50.908;6.974;2023-04-24T05:14:10;12.70;99.90
8231;DHT22;4156;50.908;6.974;2023-04-24T05:16:37;12.70;99.90
8231;DHT22;4156;50.908;6.974;2023-04-24T05:19:03;12.70;99.90
8231;DHT22;4156;50.908;6.974;2023-04-24T05:21:29;12.70;99.90
8231;DHT22;4156;50.908;6.974;2023-04-24T05:23:54;12.70;99.90
8231;DHT22;4156;50.908;6.974;2023-04-24T05:26:20;12.70;99.90
8231;DHT22;4156;50.908;6.974;2023-04-24T05:28:46;12.70;99.90
8231;DHT22;4156;50.908;6.974;2023-04-24T05:31:11;12.70;99.90
8231;DHT22;4156;50.908;6.974;2023-04-24T05:33:37;12.70;99.90
8231;DHT22;4156;50.908;6.974;2023-04-24T05:36:03;12.70;99.90
8231;DHT22;4156;50.908;6.974;2023-04-24T05:38:30;12.80;99.90
8231;DHT22;4156;50.908;6.974;2023-04-24T05:40:56;12.70;99.90
8231;DHT22;4156;50.908;6.974;2023-04-24T05:43:21;12.70;99.90
8231;DHT22;4156;50.908;6.974;2023-04-24T05:45:47;12.80;99.90
8231;DHT22;4156;50.908;6.974;2023-04-24T05:48:12;12.80;99.90
8231;DHT22;4156;50.908;6.974;2023-04-24T05:50:38;12.80;99.90
8231;DHT22;4156;50.908;6.974;2023-04-24T05:53:03;12.80;99.90
8231;DHT22;4156;50.908;6.974;2023-04-24T05:55:30;12.70;99.90
8231;DHT22;4156;50.908;6.974;2023-04-24T05:57:56;12.70;99.90
8231;DHT22;4156;50.908;6.974;2023-04-24T06:00:21;12.70;99.90
8231;DHT22;4156;50.908;6.974;2023-04-24T06:02:47;12.70;99.90
8231;DHT22;4156;50.908;6.974;2023-04-24T06:05:13;12.70;99.90
8231;DHT22;4156;50.908;6.974;2023-04-24T06:07:38;12.60;99.90
8231;DHT22;4156;50.908;6.974;2023-04-24T06:10:04;12.60;99.90
8231;DHT22;4156;50.908;6.974;2023-04-24T06:12:30;12.60;99.90
8231;DHT22;4156;50.908;6.974;2023-04-24T06:14:56;12.60;99.90
8231;DHT22;4156;50.908;6.974;2023-04-24T06:17:21;12.60;99.90
8231;DHT22;4156;50.908;6.974;2023-04-24T06:19:47;12.60;99.90
8231;DHT22;4156;50.908;6.974;2023-04-24T06:22:13;12.60;99.90
8231;DHT22;4156;50.908;6.974;2023-04-24T06:24:40;12.60;99.90
8231;DHT22;4156;50.908;6.974;2023-04-24T06:27:05;12.60;99.90
8231;DHT22;4156;50.908;6.974;2023-04-24T06:29:32;12.60;99.90
8231;DHT22;4156;50.908;6.974;2023-04-24T06:31:58;12.60;99.90
8231;DHT22;4156;50.908;6.974;2023-04-24T06:34:23;12.70;99.90
8231;DHT22;4156;50.908;6.974;2023-04-24T06:36:49;12.60;99.90
8231;DHT22;4156;50.908;6.974;2023-04-24T06:39:14;12.60;99.90
8231;DHT22;4156;50.908;6.974;2023-04-24T06:41:40;12.60;99.90
8231;DHT22;4156;50.908;6.974;2023-04-24T06:44:05;12.50;99.90
8231;DHT22;4156;50.908;6.974;2023-04-24T06:46:31;12.50;99.90
8231;DHT22;4156;50.908;6.974;2023-04-24T06:48:56;12.50;99.90
8231;DHT22;4156;50.908;6.974;2023-04-24T06:51:26;12.50;99.90
8231;DHT22;4156;50.908;6.974;2023-04-24T06:53:53;12.50;99.90
8231;DHT22;4156;50.908;6.974;2023-04-24T06:56:19;12.50;99.90
8231;DHT22;4156;50.908;6.974;2023-04-24T06:58:44;12.40;99.90
8231;DHT22;4156;50.908;6.974;2023-04-24T07:01:10;12.40;99.90
8231;DHT22;4156;50.908;6.974;2023-04-24T07:03:36;12.40;99.90
8231;DHT22;4156;50.908;6.974;2023-04-24T07:06:02;12.40;99.90
8231;DHT22;4156;50.908;6.974;2023-04-24T07:08:28;12.40;99.90
8231;DHT22;4156;50.908;6.974;2023-04-24T07:10:56;12.40;99.90
8231;DHT22;4156;50.908;6.974;2023-04-24T07:13:22;12.30;99.90
8231;DHT22;4156;50.908;6.974;2023-04-24T07:15:47;12.30;99.90
8231;DHT22;4156;50.908;6.974;2023-04-24T07:18:15;12.30;99.90
8231;DHT22;4156;50.908;6.974;2023-04-24T07:20:41;12.30;99.90
8231;DHT22;4156;50.908;6.974;2023-04-24T07:23:06;12.30;99.90
8231;DHT22;4156;50.908;6.974;2023-04-24T07:25:32;12.30;99.90
8231;DHT22;4156;50.908;6.974;2023-04-24T07:27:58;12.20;99.90
8231;DHT22;4156;50.908;6.974;2023-04-24T07:30:24;12.20;99.90
8231;DHT22;4156;50.908;6.974;2023-04-24T07:32:49;12.20;99.90
8231;DHT22;4156;50.908;6.974;2023-04-24T07:35:15;12.10;99.90
8231;DHT22;4156;50.908;6.974;2023-04-24T07:37:41;12.20;99.90
8231;DHT22;4156;50.908;6.974;2023-04-24T07:40:13;12.20;99.90
8231;DHT22;4156;50.908;6.974;2023-04-24T07:42:39;12.20;99.90
8231;DHT22;4156;50.908;6.974;2023-04-24T07:45:05;12.20;99.90
8231;DHT22;4156;50.908;6.974;2023-04-24T07:47:32;12.10;99.90
8231;DHT22;4156;50.908;6.974;2023-04-24T07:49:58;12.10;99.90
8231;DHT22;4156;50.908;6.974;2023-04-24T07:52:24;12.10;99.90
8231;DHT22;4156;50.908;6.974;2023-04-24T07:54:49;12.10;99.90
8231;DHT22;4156;50.908;6.974;2023-04-24T07:57:16;12.00;99.90
8231;DHT22;4156;50.908;6.974;2023-04-24T07:59:41;12.00;99.90
8231;DHT22;4156;50.908;6.974;2023-04-24T08:02:07;12.00;99.90
8231;DHT22;4156;50.908;6.974;2023-04-24T08:04:33;11.90;99.90
8231;DHT22;4156;50.908;6.974;2023-04-24T08:06:58;11.90;99.90
8231;DHT22;4156;50.908;6.974;2023-04-24T08:09:24;11.90;99.90
8231;DHT22;4156;50.908;6.974;2023-04-24T08:11:49;11.90;99.90
8231;DHT22;4156;50.908;6.974;2023-04-24T08:14:15;11.80;99.90
8231;DHT22;4156;50.908;6.974;2023-04-24T08:16:41;11.70;99.90
8231;DHT22;4156;50.908;6.974;2023-04-24T08:19:07;11.70;99.90
8231;DHT22;4156;50.908;6.974;2023-04-24T08:21:32;11.70;99.90
8231;DHT22;4156;50.908;6.974;2023-04-24T08:23:58;11.70;99.90
8231;DHT22;4156;50.908;6.974;2023-04-24T08:26:24;11.70;99.90
8231;DHT22;4156;50.908;6.974;2023-04-24T08:28:50;11.70;99.90
8231;DHT22;4156;50.908;6.974;2023-04-24T08:31:15;11.70;99.90
8231;DHT22;4156;50.908;6.974;2023-04-24T08:33:40;11.60;99.90
8231;DHT22;4156;50.908;6.974;2023-04-24T08:36:07;11.60;99.90
8231;DHT22;4156;50.908;6.974;2023-04-24T08:38:33;11.60;99.90
8231;DHT22;4156;50.908;6.974;2023-04-24T08:41:00;11.60;99.90
8231;DHT22;4156;50.908;6.974;2023-04-24T08:43:27;11.50;99.90
8231;DHT22;4156;50.908;6.974;2023-04-24T08:45:55;11.50;99.90
8231;DHT22;4156;50.908;6.974;2023-04-24T08:48:22;11.40;99.90
8231;DHT22;4156;50.908;6.974;2023-04-24T08:50:50;11.50;99.90
8231;DHT22;4156;50.908;6.974;2023-04-24T08:53:16;11.50;99.90
8231;DHT22;4156;50.908;6.974;2023-04-24T08:55:43;11.40;99.90
8231;DHT22;4156;50.908;6.974;2023-04-24T08:58:12;11.40;99.90
8231;DHT22;4156;50.908;6.974;2023-04-24T09:00:39;11.40;99.90
8231;DHT22;4156;50.908;6.974;2023-04-24T09:03:05;11.40;99.90
8231;DHT22;4156;50.908;6.974;2023-04-24T09:05:32;11.40;99.90
8231;DHT22;4156;50.908;6.974;2023-04-24T09:07:59;11.30;99.90
8231;DHT22;4156;50.908;6.974;2023-04-24T09:10:27;11.30;99.90
8231;DHT22;4156;50.908;6.974;2023-04-24T09:12:56;11.30;99.90
8231;DHT22;4156;50.908;6.974;2023-04-24T09:15:24;11.30;99.90
8231;DHT22;4156;50.908;6.974;2023-04-24T09:17:50;11.20;99.90
8231;DHT22;4156;50.908;6.974;2023-04-24T09:20:15;11.20;99.90
8231;DHT22;4156;50.908;6.974;2023-04-24T09:22:42;11.30;99.90
8231;DHT22;4156;50.908;6.974;2023-04-24T09:25:09;11.30;99.90
8231;DHT22;4156;50.908;6.974;2023-04-24T09:27:41;11.30;99.90
8231;DHT22;4156;50.908;6.974;2023-04-24T09:30:07;11.20;99.90
8231;DHT22;4156;50.908;6.974;2023-04-24T09:32:33;11.20;99.90
8231;DHT22;4156;50.908;6.974;2023-04-24T09:35:13;11.20;99.90
8231;DHT22;4156;50.908;6.974;2023-04-24T09:37:45;11.20;99.90
8231;DHT22;4156;50.908;6.974;2023-04-24T09:40:17;11.20;99.90
8231;DHT22;4156;50.908;6.974;2023-04-24T09:42:44;11.30;99.90
8231;DHT22;4156;50.908;6.974;2023-04-24T09:45:11;11.30;99.90
8231;DHT22;4156;50.908;6.974;2023-04-24T09:47:40;11.30;99.90
8231;DHT22;4156;50.908;6.974;2023-04-24T09:50:18;11.30;99.90
8231;DHT22;4156;50.908;6.974;2023-04-24T09:52:57;11.40;99.90
8231;DHT22;4156;50.908;6.974;2023-04-24T09:55:24;11.40;99.90
8231;DHT22;4156;50.908;6.974;2023-04-24T09:57:50;11.40;99.90
8231;DHT22;4156;50.908;6.974;2023-04-24T10:00:25;11.40;99.90
8231;DHT22;4156;50.908;6.974;2023-04-24T10:02:56;11.40;99.90
8231;DHT22;4156;50.908;6.974;2023-04-24T10:05:31;11.40;99.90
8231;DHT22;4156;50.908;6.974;2023-04-24T10:08:01;11.40;99.90
8231;DHT22;4156;50.908;6.974;2023-04-24T10:10:26;11.40;99.90
8231;DHT22;4156;50.908;6.974;2023-04-24T10:12:53;11.40;99.90
8231;DHT22;4156;50.908;6.974;2023-04-24T10:15:20;11.40;99.90
8231;DHT22;4156;50.908;6.974;2023-04-24T10:17:48;11.50;99.90
8231;DHT22;4156;50.908;6.974;2023-04-24T10:20:18;11.50;99.90
8231;DHT22;4156;50.908;6.974;2023-04-24T10:22:47;11.50;99.90
8231;DHT22;4156;50.908;6.974;2023-04-24T10:25:19;11.50;99.90
8231;DHT22;4156;50.908;6.974;2023-04-24T10:27:46;11.50;99.90
8231;DHT22;4156;50.908;6.974;2023-04-24T10:30:12;11.50;99.90
8231;DHT22;4156;50.908;6.974;2023-04-24T10:32:38;11.50;99.90
8231;DHT22;4156;50.908;6.974;2023-04-24T10:35:05;11.60;99.90
8231;DHT22;4156;50.908;6.974;2023-04-24T10:37:37;11.60;99.90
8231;DHT22;4156;50.908;6.974;2023-04-24T10:40:03;11.60;99.90
8231;DHT22;4156;50.908;6.974;2023-04-24T10:42:29;11.60;99.90
8231;DHT22;4156;50.908;6.974;2023-04-24T10:44:55;11.60;99.90
8231;DHT22;4156;50.908;6.974;2023-04-24T10:47:21;11.60;99.90
8231;DHT22;4156;50.908;6.974;2023-04-24T10:49:50;11.60;99.90
8231;DHT22;4156;50.908;6.974;2023-04-24T10:52:17;11.70;99.90
8231;DHT22;4156;50.908;6.974;2023-04-24T10:54:47;11.60;99.90
8231;DHT22;4156;50.908;6.974;2023-04-24T10:59:49;11.70;99.90
8231;DHT22;4156;50.908;6.974;2023-04-24T11:02:16;11.80;99.90
8231;DHT22;4156;50.908;6.974;2023-04-24T11:04:42;11.70;99.90
8231;DHT22;4156;50.908;6.974;2023-04-24T11:07:09;11.80;99.90
8231;DHT22;4156;50.908;6.974;2023-04-24T11:09:35;11.80;99.90
8231;DHT22;4156;50.908;6.974;2023-04-24T11:12:05;11.90;99.90
8231;DHT22;4156;50.908;6.974;2023-04-24T11:17:35;12.00;99.90
8231;DHT22;4156;50.908;6.974;2023-04-24T11:20:10;12.00;99.90
8231;DHT22;4156;50.908;6.974;2023-04-24T11:22:38;12.00;99.90
8231;DHT22;4156;50.908;6.974;2023-04-24T11:25:05;12.00;99.90
8231;DHT22;4156;50.908;6.974;2023-04-24T11:27:42;12.00;99.90
8231;DHT22;4156;50.908;6.974;2023-04-24T11:30:09;12.00;99.90
8231;DHT22;4156;50.908;6.974;2023-04-24T11:32:42;12.00;99.90
8231;DHT22;4156;50.908;6.974;2023-04-24T11:35:10;12.00;99.90
8231;DHT22;4156;50.908;6.974;2023-04-24T11:37:39;12.00;99.90
8231;DHT22;4156;50.908;6.974;2023-04-24T11:40:10;12.00;99.90
8231;DHT22;4156;50.908;6.974;2023-04-24T11:42:37;12.00;99.90
8231;DHT22;4156;50.908;6.974;2023-04-24T11:45:08;12.00;99.90
8231;DHT22;4156;50.908;6.974;2023-04-24T11:47:35;12.00;99.90
8231;DHT22;4156;50.908;6.974;2023-04-24T11:50:02;12.00;99.90
8231;DHT22;4156;50.908;6.974;2023-04-24T11:52:30;12.00;99.90
8231;DHT22;4156;50.908;6.974;2023-04-24T11:54:56;12.00;99.90
8231;DHT22;4156;50.908;6.974;2023-04-24T11:57:24;12.10;99.90
8231;DHT22;4156;50.908;6.974;2023-04-24T11:59:51;12.00;99.90
8231;DHT22;4156;50.908;6.974;2023-04-24T12:02:21;12.10;99.90
8231;DHT22;4156;50.908;6.974;2023-04-24T12:04:47;12.10;99.90
8231;DHT22;4156;50.908;6.974;2023-04-24T12:07:13;12.10;99.90
8231;DHT22;4156;50.908;6.974;2023-04-24T12:09:46;12.10;99.90
8231;DHT22;4156;50.908;6.974;2023-04-24T12:12:14;12.20;99.90
8231;DHT22;4156;50.908;6.974;2023-04-24T12:14:58;12.30;99.90
8231;DHT22;4156;50.908;6.974;2023-04-24T12:17:29;12.30;99.90
8231;DHT22;4156;50.908;6.974;2023-04-24T12:20:00;12.40;99.90
8231;DHT22;4156;50.908;6.974;2023-04-24T12:22:27;12.40;99.90
8231;DHT22;4156;50.908;6.974;2023-04-24T12:24:58;12.40;99.90
8231;DHT22;4156;50.908;6.974;2023-04-24T12:27:24;12.50;99.90
8231;DHT22;4156;50.908;6.974;2023-04-24T12:29:55;12.50;99.90
8231;DHT22;4156;50.908;6.974;2023-04-24T12:32:20;12.50;99.90
8231;DHT22;4156;50.908;6.974;2023-04-24T12:34:46;12.50;99.90
8231;DHT22;4156;50.908;6.974;2023-04-24T12:37:12;12.50;99.90
8231;DHT22;4156;50.908;6.974;2023-04-24T12:39:37;12.50;99.90
8231;DHT22;4156;50.908;6.974;2023-04-24T12:42:03;12.50;99.90
8231;DHT22;4156;50.908;6.974;2023-04-24T12:44:32;12.50;99.90
8231;DHT22;4156;50.908;6.974;2023-04-24T12:47:02;12.50;99.90
8231;DHT22;4156;50.908;6.974;2023-04-24T12:49:30;12.60;99.90
8231;DHT22;4156;50.908;6.974;2023-04-24T12:51:56;12.60;99.90
8231;DHT22;4156;50.908;6.974;2023-04-24T12:54:22;12.60;99.90
8231;DHT22;4156;50.908;6.974;2023-04-24T12:56:47;12.60;99.90
8231;DHT22;4156;50.908;6.974;2023-04-24T12:59:13;12.60;99.90
8231;DHT22;4156;50.908;6.974;2023-04-24T13:01:39;12.60;99.90
8231;DHT22;4156;50.908;6.974;2023-04-24T13:04:05;12.60;99.90
8231;DHT22;4156;50.908;6.974;2023-04-24T13:06:31;12.70;99.90
8231;DHT22;4156;50.908;6.974;2023-04-24T13:08:56;12.70;99.90
8231;DHT22;4156;50.908;6.974;2023-04-24T13:11:23;12.70;99.90
8231;DHT22;4156;50.908;6.974;2023-04-24T13:13:49;12.70;99.90
8231;DHT22;4156;50.908;6.974;2023-04-24T13:16:14;12.70;99.90
8231;DHT22;4156;50.908;6.974;2023-04-24T13:18:40;12.70;99.90
8231;DHT22;4156;50.908;6.974;2023-04-24T13:21:06;12.70;99.90
8231;DHT22;4156;50.908;6.974;2023-04-24T13:23:31;12.80;99.90
8231;DHT22;4156;50.908;6.974;2023-04-24T13:25:57;12.80;99.90
8231;DHT22;4156;50.908;6.974;2023-04-24T13:28:23;12.80;99.90
8231;DHT22;4156;50.908;6.974;2023-04-24T13:30:50;12.80;99.90
8231;DHT22;4156;50.908;6.974;2023-04-24T13:33:15;12.80;99.90
8231;DHT22;4156;50.908;6.974;2023-04-24T13:35:41;12.80;99.90
8231;DHT22;4156;50.908;6.974;2023-04-24T13:38:07;12.90;99.90
8231;DHT22;4156;50.908;6.974;2023-04-24T13:40:33;12.90;99.90
8231;DHT22;4156;50.908;6.974;2023-04-24T13:42:58;12.90;99.90
8231;DHT22;4156;50.908;6.974;2023-04-24T13:45:24;12.90;99.90
8231;DHT22;4156;50.908;6.974;2023-04-24T13:47:49;12.90;99.90
8231;DHT22;4156;50.908;6.974;2023-04-24T13:50:15;12.90;99.90
8231;DHT22;4156;50.908;6.974;2023-04-24T13:52:41;12.70;99.90
8231;DHT22;4156;50.908;6.974;2023-04-24T13:55:07;13.00;99.90
8231;DHT22;4156;50.908;6.974;2023-04-24T13:57:32;13.00;99.90
8231;DHT22;4156;50.908;6.974;2023-04-24T13:59:58;13.00;99.90
8231;DHT22;4156;50.908;6.974;2023-04-24T14:02:29;13.00;99.90
8231;DHT22;4156;50.908;6.974;2023-04-24T14:04:55;13.00;99.90
8231;DHT22;4156;50.908;6.974;2023-04-24T14:07:20;13.00;99.90
8231;DHT22;4156;50.908;6.974;2023-04-24T14:09:46;13.00;99.90
8231;DHT22;4156;50.908;6.974;2023-04-24T14:12:11;13.00;99.90
8231;DHT22;4156;50.908;6.974;2023-04-24T14:14:37;13.00;99.90
8231;DHT22;4156;50.908;6.974;2023-04-24T14:17:03;13.00;99.90
8231;DHT22;4156;50.908;6.974;2023-04-24T14:19:28;13.00;99.90
8231;DHT22;4156;50.908;6.974;2023-04-24T14:21:54;13.10;99.90
8231;DHT22;4156;50.908;6.974;2023-04-24T14:24:22;13.10;99.90
8231;DHT22;4156;50.908;6.974;2023-04-24T14:26:47;13.10;99.90
8231;DHT22;4156;50.908;6.974;2023-04-24T14:29:13;13.10;99.90
8231;DHT22;4156;50.908;6.974;2023-04-24T14:31:38;13.10;99.90
8231;DHT22;4156;50.908;6.974;2023-04-24T14:34:04;13.10;99.90
8231;DHT22;4156;50.908;6.974;2023-04-24T14:36:29;13.10;99.90
8231;DHT22;4156;50.908;6.974;2023-04-24T14:38:55;13.10;99.90
8231;DHT22;4156;50.908;6.974;2023-04-24T14:41:21;13.10;99.90
8231;DHT22;4156;50.908;6.974;2023-04-24T14:43:46;13.20;99.90
8231;DHT22;4156;50.908;6.974;2023-04-24T14:46:12;13.20;99.90
8231;DHT22;4156;50.908;6.974;2023-04-24T14:48:37;13.20;99.90
8231;DHT22;4156;50.908;6.974;2023-04-24T14:51:03;13.20;99.90
8231;DHT22;4156;50.908;6.974;2023-04-24T14:53:29;13.20;99.90
8231;DHT22;4156;50.908;6.974;2023-04-24T14:55:55;13.20;99.90
8231;DHT22;4156;50.908;6.974;2023-04-24T14:58:20;13.20;99.90
8231;DHT22;4156;50.908;6.974;2023-04-24T15:00:46;13.20;99.90
8231;DHT22;4156;50.908;6.974;2023-04-24T15:03:14;13.20;99.90
8231;DHT22;4156;50.908;6.974;2023-04-24T15:05:40;13.20;99.90
8231;DHT22;4156;50.908;6.974;2023-04-24T15:08:05;13.30;99.90
8231;DHT22;4156;50.908;6.974;2023-04-24T15:10:31;13.20;99.90
8231;DHT22;4156;50.908;6.974;2023-04-24T15:12:57;13.20;99.90
8231;DHT22;4156;50.908;6.974;2023-04-24T15:15:22;13.30;99.90
8231;DHT22;4156;50.908;6.974;2023-04-24T15:17:48;13.20;99.90
8231;DHT22;4156;50.908;6.974;2023-04-24T15:20:13;13.20;99.90
8231;DHT22;4156;50.908;6.974;2023-04-24T15:22:39;13.20;99.90
8231;DHT22;4156;50.908;6.974;2023-04-24T15:25:05;13.20;99.90
8231;DHT22;4156;50.908;6.974;2023-04-24T15:27:48;13.20;99.90
8231;DHT22;4156;50.908;6.974;2023-04-24T15:30:14;13.30;99.90
8231;DHT22;4156;50.908;6.974;2023-04-24T15:32:40;13.30;99.90
8231;DHT22;4156;50.908;6.974;2023-04-24T15:35:06;13.30;99.90
8231;DHT22;4156;50.908;6.974;2023-04-24T15:37:31;13.30;99.90
8231;DHT22;4156;50.908;6.974;2023-04-24T15:39:57;13.30;99.90
8231;DHT22;4156;50.908;6.974;2023-04-24T15:42:23;13.30;99.90
8231;DHT22;4156;50.908;6.974;2023-04-24T15:44:49;13.30;99.90
8231;DHT22;4156;50.908;6.974;2023-04-24T15:47:14;13.50;99.90
8231;DHT22;4156;50.908;6.974;2023-04-24T15:49:40;13.30;99.90
8231;DHT22;4156;50.908;6.974;2023-04-24T15:52:05;13.30;99.90
8231;DHT22;4156;50.908;6.974;2023-04-24T15:54:31;13.30;99.90
8231;DHT22;4156;50.908;6.974;2023-04-24T15:56:56;13.40;99.90
8231;DHT22;4156;50.908;6.974;2023-04-24T15:59:23;13.40;99.90
8231;DHT22;4156;50.908;6.974;2023-04-24T16:01:48;13.40;99.90